createdAt,value
2017-04-23T00:00:13.180Z,78.88
2017-04-23T00:00:53.728Z,78.59
2017-04-23T00:01:34.194Z,78.78
2017-04-23T00:02:14.710Z,78.88
2017-04-23T00:02:55.213Z,78.5
2017-04-23T00:03:35.698Z,79.07
2017-04-23T00:04:16.352Z,79.17
2017-04-23T00:04:56.878Z,79.07
2017-04-23T00:05:37.348Z,79.36
2017-04-23T00:06:17.825Z,79.55
2017-04-23T00:06:58.315Z,79.64
2017-04-23T00:07:38.832Z,78.98
2017-04-23T00:08:19.297Z,78.88
2017-04-23T00:08:59.749Z,79.02
2017-04-23T00:09:40.269Z,78.35
2017-04-23T00:10:20.765Z,78.35
2017-04-23T00:11:01.285Z,77.97
2017-04-23T00:11:41.742Z,78.35
2017-04-23T00:12:22.203Z,77.97
2017-04-23T00:13:02.726Z,77.49
2017-04-23T00:13:43.183Z,77.4
2017-04-23T00:14:23.693Z,77.78
2017-04-23T00:15:04.190Z,77.59
2017-04-23T00:15:44.636Z,77.11
2017-04-23T00:16:25.124Z,77.3
2017-04-23T00:17:05.638Z,76.64
2017-04-23T00:17:46.296Z,76.64
2017-04-23T00:18:26.844Z,76.64
2017-04-23T00:19:07.294Z,76.92
2017-04-23T00:19:47.804Z,77.01
2017-04-23T00:20:28.324Z,76.73
2017-04-23T00:21:08.807Z,76.92
2017-04-23T00:21:49.368Z,77.11
2017-04-23T00:22:29.822Z,76.44
2017-04-23T00:23:10.309Z,76.92
2017-04-23T00:23:50.819Z,76.92
2017-04-23T00:24:31.379Z,76.82
2017-04-23T00:25:11.882Z,76.64
2017-04-23T00:25:52.375Z,76.35
2017-04-23T00:26:32.861Z,76.73
2017-04-23T00:27:13.401Z,76.54
2017-04-23T00:27:53.953Z,76.54
2017-04-23T00:28:34.465Z,76.06
2017-04-23T00:29:14.969Z,76.35
2017-04-23T00:29:55.441Z,76.54
2017-04-23T00:30:35.953Z,76.82
2017-04-23T00:31:16.452Z,76.92
2017-04-23T00:31:56.948Z,76.64
2017-04-23T00:32:37.404Z,76.06
2017-04-23T00:33:17.942Z,76.54
2017-04-23T00:33:58.389Z,76.54
2017-04-23T00:34:38.888Z,76.25
2017-04-23T00:35:19.350Z,76.44
2017-04-23T00:35:59.872Z,76.16
2017-04-23T00:36:40.352Z,76.06
2017-04-23T00:37:20.822Z,75.74
2017-04-23T00:38:01.320Z,75.45
2017-04-23T00:38:41.811Z,75.59
2017-04-23T00:39:22.335Z,75.4
2017-04-23T00:40:02.792Z,75.3
2017-04-23T00:40:43.291Z,75.59
2017-04-23T00:41:23.755Z,75.3
2017-04-23T00:42:04.275Z,76.06
2017-04-23T00:42:44.777Z,76.03
2017-04-23T00:43:25.287Z,76.03
2017-04-23T00:44:05.759Z,75.64
2017-04-23T00:44:46.304Z,75.84
2017-04-23T00:45:26.753Z,76.12
2017-04-23T00:46:07.238Z,75.84
2017-04-23T00:46:47.774Z,76.31
2017-04-23T00:47:28.266Z,76.31
2017-04-23T00:48:08.777Z,76.12
2017-04-23T00:48:49.244Z,75.64
2017-04-23T00:49:29.778Z,76.03
2017-04-23T00:50:10.234Z,75.74
2017-04-23T00:52:23.473Z,76.79
2017-04-23T00:53:03.984Z,76.79
2017-04-23T00:53:44.463Z,76.59
2017-04-23T00:54:24.972Z,76.69
2017-04-23T00:55:05.477Z,76.88
2017-04-23T00:55:45.995Z,76.88
2017-04-23T00:56:26.480Z,76.59
2017-04-23T00:57:06.985Z,76.12
2017-04-23T00:57:47.473Z,76.03
2017-04-23T00:58:27.978Z,74.02
2017-04-23T00:59:08.472Z,69.17
2017-04-23T00:59:48.951Z,67.55
2017-04-23T01:00:29.438Z,64.59
2017-04-23T01:01:09.963Z,63.73
2017-04-23T01:01:50.462Z,62.21
2017-04-23T01:02:30.900Z,61.16
2017-04-23T01:03:11.415Z,61.54
2017-04-23T01:03:51.915Z,61.64
2017-04-23T01:04:32.423Z,61.07
2017-04-23T01:05:12.900Z,61.35
2017-04-23T01:05:53.414Z,60.69
2017-04-23T01:06:33.904Z,60.69
2017-04-23T01:07:14.427Z,59.83
2017-04-23T01:07:54.880Z,59.54
2017-04-23T01:08:35.351Z,59.83
2017-04-23T01:09:15.881Z,59.26
2017-04-23T01:09:56.358Z,59.45
2017-04-23T01:10:36.861Z,57.45
2017-04-23T01:11:17.382Z,56.87
2017-04-23T01:11:57.877Z,56.59
2017-04-23T01:12:38.374Z,56.49
2017-04-23T01:13:18.848Z,56.02
2017-04-23T01:13:59.409Z,55.73
2017-04-23T01:14:39.870Z,54.97
2017-04-23T01:15:20.377Z,55.26
2017-04-23T01:16:00.871Z,54.88
2017-04-23T01:16:41.332Z,54.88
2017-04-23T01:17:21.842Z,53.64
2017-04-23T01:18:02.315Z,53.73
2017-04-23T01:18:42.832Z,52.4
2017-04-23T01:19:23.294Z,52.49
2017-04-23T01:20:03.789Z,52.87
2017-04-23T01:20:44.250Z,52.78
2017-04-23T01:21:24.754Z,52.87
2017-04-23T01:22:05.213Z,52.97
2017-04-23T01:22:45.735Z,53.35
2017-04-23T01:23:26.220Z,53.73
2017-04-23T01:24:06.707Z,53.92
2017-04-23T01:24:47.241Z,53.83
2017-04-23T01:25:27.716Z,54.21
2017-04-23T01:26:08.239Z,54.68
2017-04-23T01:26:48.749Z,54.78
2017-04-23T01:27:29.217Z,55.35
2017-04-23T01:28:09.737Z,54.78
2017-04-23T01:28:50.222Z,53.92
2017-04-23T01:29:30.722Z,54.97
2017-04-23T01:30:11.175Z,55.44
2017-04-23T01:30:51.700Z,54.59
2017-04-23T01:31:32.222Z,54.21
2017-04-23T01:32:12.677Z,54.97
2017-04-23T01:32:53.196Z,55.26
2017-04-23T01:33:33.685Z,54.78
2017-04-23T01:34:14.190Z,55.16
2017-04-23T01:34:54.738Z,55.07
2017-04-23T01:35:35.170Z,54.97
2017-04-23T01:36:15.672Z,55.35
2017-04-23T01:36:56.191Z,55.44
2017-04-23T01:37:36.688Z,55.07
2017-04-23T01:38:17.410Z,55.07
2017-04-23T01:38:57.914Z,55.26
2017-04-23T01:39:38.362Z,55.73
2017-04-23T01:40:18.910Z,55.54
2017-04-23T01:40:59.356Z,55.63
2017-04-23T01:41:39.907Z,54.97
2017-04-23T01:42:20.380Z,56.02
2017-04-23T01:43:00.840Z,55.54
2017-04-23T01:43:41.366Z,55.92
2017-04-23T01:44:21.838Z,56.49
2017-04-23T01:45:02.329Z,56.11
2017-04-23T01:45:42.831Z,56.21
2017-04-23T01:46:23.314Z,55.54
2017-04-23T01:47:03.789Z,55.35
2017-04-23T01:47:44.301Z,55.26
2017-04-23T01:48:24.784Z,55.26
2017-04-23T01:49:05.284Z,55.16
2017-04-23T01:49:45.767Z,55.26
2017-04-23T01:50:26.274Z,54.59
2017-04-23T01:51:06.728Z,54.3
2017-04-23T01:51:47.220Z,54.14
2017-04-23T01:52:27.745Z,54.43
2017-04-23T01:53:08.196Z,55
2017-04-23T01:53:48.729Z,55.07
2017-04-23T01:54:29.193Z,54.11
2017-04-23T01:55:09.679Z,53.92
2017-04-23T01:55:50.205Z,53.16
2017-04-23T01:56:30.716Z,52.68
2017-04-23T01:57:11.196Z,52.49
2017-04-23T01:57:51.726Z,52.2
2017-04-23T01:58:32.193Z,51.82
2017-04-23T01:59:12.735Z,52.68
2017-04-23T01:59:53.218Z,52.01
2017-04-23T02:00:33.699Z,51.82
2017-04-23T02:01:14.181Z,51.73
2017-04-23T02:01:54.696Z,51.82
2017-04-23T02:02:35.169Z,51.35
2017-04-23T02:03:15.653Z,51.35
2017-04-23T02:03:56.115Z,50.87
2017-04-23T02:04:36.632Z,50.87
2017-04-23T02:05:17.103Z,50.68
2017-04-23T02:05:57.623Z,50.94
2017-04-23T02:06:38.086Z,50.87
2017-04-23T02:07:18.566Z,51.25
2017-04-23T02:07:59.080Z,51.23
2017-04-23T02:08:39.641Z,51.54
2017-04-23T02:09:20.097Z,51.16
2017-04-23T02:10:00.598Z,51.04
2017-04-23T02:10:41.095Z,51.25
2017-04-23T02:11:21.602Z,50.78
2017-04-23T02:12:02.118Z,50.94
2017-04-23T02:12:42.607Z,50.97
2017-04-23T02:13:23.194Z,50.97
2017-04-23T02:14:03.669Z,51.16
2017-04-23T02:14:44.159Z,51.06
2017-04-23T02:15:24.647Z,50.78
2017-04-23T02:16:05.148Z,51.25
2017-04-23T02:16:45.635Z,50.4
2017-04-23T02:17:26.200Z,50.97
2017-04-23T02:18:06.674Z,50.59
2017-04-23T02:18:47.186Z,50.66
2017-04-23T02:19:27.661Z,51.04
2017-04-23T02:20:08.170Z,51.04
2017-04-23T02:20:48.649Z,51.16
2017-04-23T02:21:29.153Z,50.97
2017-04-23T02:22:09.678Z,50.49
2017-04-23T02:22:50.146Z,50.4
2017-04-23T02:23:30.613Z,50.68
2017-04-23T02:24:11.107Z,50.66
2017-04-23T02:24:51.597Z,50.56
2017-04-23T02:25:32.093Z,50.94
2017-04-23T02:26:12.586Z,51.06
2017-04-23T02:26:53.045Z,51.23
2017-04-23T02:27:33.611Z,51.06
2017-04-23T02:28:14.100Z,50.85
2017-04-23T02:28:54.535Z,50.87
2017-04-23T02:29:35.021Z,50.21
2017-04-23T02:30:15.518Z,50.59
2017-04-23T02:30:56.009Z,50.3
2017-04-23T02:31:36.494Z,50.49
2017-04-23T02:32:16.993Z,50.59
2017-04-23T02:32:57.484Z,50.78
2017-04-23T02:33:38.004Z,50.59
2017-04-23T02:34:18.480Z,50.66
2017-04-23T02:34:58.994Z,50.46
2017-04-23T02:35:39.503Z,50.87
2017-04-23T02:36:20.010Z,50.59
2017-04-23T02:37:00.504Z,50.59
2017-04-23T02:37:41.007Z,50.3
2017-04-23T02:38:21.481Z,50.46
2017-04-23T02:39:02.012Z,50.87
2017-04-23T02:39:42.509Z,50.68
2017-04-23T02:40:23.015Z,51.16
2017-04-23T02:41:03.497Z,51.32
2017-04-23T02:41:43.988Z,50.94
2017-04-23T02:42:24.500Z,50.94
2017-04-23T02:43:04.968Z,50.94
2017-04-23T02:43:45.429Z,50.66
2017-04-23T02:44:25.900Z,51.06
2017-04-23T02:45:06.428Z,50.85
2017-04-23T02:45:46.898Z,50.46
2017-04-23T02:46:27.370Z,50.66
2017-04-23T02:47:07.886Z,50.87
2017-04-23T02:47:48.414Z,50.85
2017-04-23T02:48:28.879Z,50.66
2017-04-23T02:49:09.363Z,50.56
2017-04-23T02:49:49.856Z,50.3
2017-04-23T02:50:30.344Z,50.68
2017-04-23T02:51:10.882Z,50.3
2017-04-23T02:51:51.376Z,50.94
2017-04-23T02:52:31.822Z,50.87
2017-04-23T02:53:12.365Z,50.97
2017-04-23T02:53:52.835Z,50.78
2017-04-23T02:54:33.388Z,50.49
2017-04-23T02:55:13.897Z,50.49
2017-04-23T02:55:54.377Z,50.3
2017-04-23T02:56:34.882Z,50.68
2017-04-23T02:57:15.373Z,50.59
2017-04-23T02:57:55.898Z,50.85
2017-04-23T02:58:36.386Z,50.59
2017-04-23T02:59:16.934Z,50.59
2017-04-23T02:59:57.391Z,50.49
2017-04-23T03:00:37.854Z,50.78
2017-04-23T03:01:18.383Z,50.97
2017-04-23T03:01:58.871Z,50.68
2017-04-23T03:02:39.341Z,50.49
2017-04-23T03:03:19.831Z,50.66
2017-04-23T03:04:00.334Z,50.59
2017-04-23T03:04:40.800Z,50.46
2017-04-23T03:05:21.291Z,50.75
2017-04-23T03:06:01.758Z,50.49
2017-04-23T03:06:42.324Z,50.66
2017-04-23T03:07:22.766Z,50.56
2017-04-23T03:08:03.293Z,50.18
2017-04-23T03:08:43.837Z,50.85
2017-04-23T03:09:24.283Z,50.56
2017-04-23T03:10:04.790Z,50.66
2017-04-23T03:10:45.299Z,51.35
2017-04-23T03:11:25.773Z,50.87
2017-04-23T03:12:06.255Z,50.97
2017-04-23T03:12:46.773Z,50.85
2017-04-23T03:13:27.261Z,50.56
2017-04-23T03:14:07.778Z,50.87
2017-04-23T03:14:48.230Z,50.68
2017-04-23T03:15:28.728Z,51.06
2017-04-23T03:16:09.201Z,50.94
2017-04-23T03:16:49.756Z,50.56
2017-04-23T03:17:30.217Z,50.97
2017-04-23T03:18:10.710Z,50.97
2017-04-23T03:18:51.169Z,51.73
2017-04-23T03:19:31.713Z,51.54
2017-04-23T03:20:12.163Z,51.54
2017-04-23T03:20:52.670Z,51.32
2017-04-23T03:21:33.145Z,51.51
2017-04-23T03:22:13.648Z,51.51
2017-04-23T03:22:54.156Z,51.32
2017-04-23T03:23:34.649Z,51.32
2017-04-23T03:24:15.165Z,51.32
2017-04-23T03:24:55.647Z,51.8
2017-04-23T03:25:36.128Z,51.7
2017-04-23T03:26:16.611Z,51.89
2017-04-23T03:26:57.128Z,51.89
2017-04-23T03:27:37.599Z,52.09
2017-04-23T03:28:18.048Z,52.56
2017-04-23T03:28:58.561Z,52.18
2017-04-23T03:29:39.048Z,52.66
2017-04-23T03:30:19.570Z,51.89
2017-04-23T03:31:00.032Z,51.99
2017-04-23T03:31:40.514Z,51.89
2017-04-23T03:32:21.056Z,51.99
2017-04-23T03:33:01.553Z,52.09
2017-04-23T03:33:42.020Z,51.89
2017-04-23T03:34:22.468Z,52.37
2017-04-23T03:35:02.990Z,52.09
2017-04-23T03:35:43.484Z,52.94
2017-04-23T03:36:23.996Z,52.56
2017-04-23T03:37:04.603Z,52.47
2017-04-23T03:37:45.002Z,52.47
2017-04-23T03:38:25.494Z,52.37
2017-04-23T03:39:06.018Z,52.18
2017-04-23T03:39:46.487Z,51.97
2017-04-23T03:40:27.012Z,52.06
2017-04-23T03:41:07.520Z,51.97
2017-04-23T03:41:48.011Z,51.99
2017-04-23T03:42:28.530Z,52.09
2017-04-23T03:43:09.054Z,51.7
2017-04-23T03:43:49.499Z,51.61
2017-04-23T03:44:30.066Z,51.68
2017-04-23T03:45:10.519Z,52.06
2017-04-23T03:45:51.011Z,52.06
2017-04-23T03:46:31.511Z,52.75
2017-04-23T03:47:12.001Z,51.99
2017-04-23T03:47:52.526Z,51.58
2017-04-23T03:48:32.991Z,52.53
2017-04-23T03:49:13.524Z,51.97
2017-04-23T03:49:53.982Z,51.97
2017-04-23T03:50:34.483Z,51.68
2017-04-23T03:51:14.975Z,52.06
2017-04-23T03:51:55.439Z,52.25
2017-04-23T03:52:35.925Z,52.44
2017-04-23T03:53:16.419Z,52.28
2017-04-23T03:53:56.965Z,52.94
2017-04-23T03:54:37.466Z,52.56
2017-04-23T03:55:17.917Z,52.94
2017-04-23T03:55:58.495Z,52.84
2017-04-23T03:56:38.893Z,52.75
2017-04-23T03:57:19.388Z,52.56
2017-04-23T03:57:59.889Z,52.37
2017-04-23T03:58:40.367Z,52.37
2017-04-23T03:59:20.887Z,52.44
2017-04-23T04:00:01.432Z,52.37
2017-04-23T04:00:41.851Z,52.84
2017-04-23T04:01:22.391Z,52.75
2017-04-23T04:02:02.877Z,52.44
2017-04-23T04:02:43.351Z,52.82
2017-04-23T04:03:23.840Z,52.82
2017-04-23T04:04:04.345Z,53.39
2017-04-23T04:04:44.873Z,53.01
2017-04-23T04:05:25.345Z,53.01
2017-04-23T04:06:05.868Z,52.92
2017-04-23T04:06:46.393Z,53.04
2017-04-23T04:07:26.862Z,53.11
2017-04-23T04:08:07.354Z,53.11
2017-04-23T04:08:47.933Z,53.39
2017-04-23T04:09:28.405Z,53.01
2017-04-23T04:10:08.914Z,53.3
2017-04-23T04:10:49.396Z,52.92
2017-04-23T04:11:29.886Z,53.39
2017-04-23T04:12:10.453Z,53.87
2017-04-23T04:12:50.920Z,53.87
2017-04-23T04:13:31.422Z,53.67
2017-04-23T04:14:11.915Z,54.06
2017-04-23T04:14:52.396Z,53.77
2017-04-23T04:15:32.874Z,54.15
2017-04-23T04:16:13.362Z,53.87
2017-04-23T04:16:53.905Z,54.06
2017-04-23T04:17:34.385Z,54.15
2017-04-23T04:18:14.840Z,53.87
2017-04-23T04:18:55.329Z,53.96
2017-04-23T04:19:35.829Z,54.15
2017-04-23T04:20:16.307Z,54.06
2017-04-23T04:20:56.838Z,53.67
2017-04-23T04:21:37.335Z,53.87
2017-04-23T04:22:17.833Z,53.49
2017-04-23T04:22:58.302Z,54.06
2017-04-23T04:23:38.846Z,53.58
2017-04-23T04:24:19.319Z,53.58
2017-04-23T04:24:59.735Z,53.58
2017-04-23T04:25:40.285Z,54.06
2017-04-23T04:26:20.775Z,53.87
2017-04-23T04:27:01.245Z,53.58
2017-04-23T04:27:41.785Z,53.58
2017-04-23T04:28:22.274Z,53.58
2017-04-23T04:29:02.763Z,53.77
2017-04-23T04:29:43.222Z,53.52
2017-04-23T04:30:23.768Z,53.67
2017-04-23T04:31:04.227Z,53.67
2017-04-23T04:31:44.768Z,53.61
2017-04-23T04:32:25.285Z,53.2
2017-04-23T04:33:05.760Z,53.39
2017-04-23T04:33:46.231Z,53.39
2017-04-23T04:34:26.769Z,53.11
2017-04-23T04:35:07.237Z,53.87
2017-04-23T04:35:47.706Z,53.39
2017-04-23T04:36:28.209Z,53.49
2017-04-23T04:37:08.698Z,53.49
2017-04-23T04:37:49.170Z,53.39
2017-04-23T04:38:29.622Z,54.06
2017-04-23T04:39:10.137Z,53.77
2017-04-23T04:39:50.639Z,53.58
2017-04-23T04:40:31.096Z,53.77
2017-04-23T04:41:11.573Z,53.96
2017-04-23T04:41:52.124Z,53.89
2017-04-23T04:42:32.538Z,53.89
2017-04-23T04:43:13.015Z,53.49
2017-04-23T04:43:53.535Z,54.08
2017-04-23T04:44:34.016Z,53.42
2017-04-23T04:45:14.504Z,53.77
2017-04-23T04:45:54.991Z,53.61
2017-04-23T04:46:35.479Z,53.7
2017-04-23T04:47:15.943Z,53.58
2017-04-23T04:47:56.474Z,53.7
2017-04-23T04:48:36.952Z,53.77
2017-04-23T04:49:17.451Z,54.06
2017-04-23T04:49:57.970Z,53.49
2017-04-23T04:50:38.441Z,53.87
2017-04-23T04:51:18.946Z,53.67
2017-04-23T04:51:59.487Z,53.58
2017-04-23T04:52:39.995Z,53.58
2017-04-23T04:53:20.484Z,53.39
2017-04-23T04:54:00.952Z,52.92
2017-04-23T04:54:41.453Z,53.7
2017-04-23T04:55:21.880Z,53.8
2017-04-23T04:56:02.428Z,53.32
2017-04-23T04:56:42.914Z,53.11
2017-04-23T04:57:23.365Z,53.39
2017-04-23T04:58:03.864Z,53.13
2017-04-23T04:58:44.289Z,53.32
2017-04-23T04:59:24.800Z,53.23
2017-04-23T05:00:05.330Z,53.13
2017-04-23T05:00:45.806Z,53.52
2017-04-23T05:01:26.308Z,53.52
2017-04-23T05:02:06.817Z,53.52
2017-04-23T05:02:47.312Z,53.13
2017-04-23T05:03:27.817Z,53.42
2017-04-23T05:04:08.289Z,53.23
2017-04-23T05:04:48.774Z,52.84
2017-04-23T05:05:29.279Z,52.84
2017-04-23T05:06:09.748Z,52.56
2017-04-23T05:06:50.279Z,52.47
2017-04-23T05:07:30.738Z,52.56
2017-04-23T05:08:11.228Z,52.84
2017-04-23T05:08:51.716Z,52.18
2017-04-23T05:09:32.229Z,52.56
2017-04-23T05:10:12.729Z,52.37
2017-04-23T05:10:53.214Z,52.75
2017-04-23T05:11:33.680Z,52.37
2017-04-23T05:12:14.211Z,52.56
2017-04-23T05:12:54.705Z,52.66
2017-04-23T05:13:35.154Z,52.66
2017-04-23T05:14:15.675Z,52.47
2017-04-23T05:14:56.159Z,52.94
2017-04-23T05:15:36.657Z,52.66
2017-04-23T05:16:17.170Z,52.56
2017-04-23T05:16:57.670Z,52.66
2017-04-23T05:17:38.140Z,52.56
2017-04-23T05:18:18.611Z,52.56
2017-04-23T05:18:59.112Z,52.47
2017-04-23T05:19:39.609Z,52.56
2017-04-23T05:20:20.134Z,52.09
2017-04-23T05:21:00.629Z,52.4
2017-04-23T05:21:41.104Z,52.75
2017-04-23T05:22:21.617Z,52.4
2017-04-23T05:23:02.169Z,52.56
2017-04-23T05:23:42.629Z,52.47
2017-04-23T05:24:23.159Z,52.68
2017-04-23T05:25:03.617Z,52.68
2017-04-23T05:25:44.097Z,52.68
2017-04-23T05:26:24.638Z,52.47
2017-04-23T05:27:05.137Z,52.87
2017-04-23T05:27:45.606Z,52.49
2017-04-23T05:28:26.090Z,52.37
2017-04-23T05:29:06.561Z,52.11
2017-04-23T05:29:47.134Z,52.01
2017-04-23T05:30:27.666Z,51.54
2017-04-23T05:31:08.080Z,51.82
2017-04-23T05:31:48.577Z,51.82
2017-04-23T05:32:29.069Z,51.73
2017-04-23T05:33:09.598Z,51.64
2017-04-23T05:33:50.070Z,51.64
2017-04-23T05:34:30.578Z,52.01
2017-04-23T05:35:11.074Z,52.01
2017-04-23T05:37:10.250Z,52.2
2017-04-23T05:37:50.751Z,52.49
2017-04-23T05:38:31.259Z,52.4
2017-04-23T05:39:11.769Z,52.11
2017-04-23T05:39:52.262Z,52.01
2017-04-23T05:40:32.775Z,51.35
2017-04-23T05:41:13.244Z,51.25
2017-04-23T05:41:53.778Z,51.06
2017-04-23T05:42:34.260Z,50.68
2017-04-23T05:43:14.782Z,50.99
2017-04-23T05:43:55.332Z,50.99
2017-04-23T05:44:35.887Z,50.9
2017-04-23T05:45:16.366Z,50.61
2017-04-23T05:45:59.838Z,50.52
2017-04-23T05:46:39.337Z,50.13
2017-04-23T05:47:19.783Z,49.66
2017-04-23T05:48:00.256Z,50.13
2017-04-23T05:48:40.732Z,49.95
2017-04-23T05:49:21.271Z,50.42
2017-04-23T05:50:01.866Z,50.13
2017-04-23T05:50:42.368Z,50.04
2017-04-23T05:51:22.861Z,50.42
2017-04-23T05:52:03.340Z,50.4
2017-04-23T05:52:43.845Z,50.01
2017-04-23T05:53:24.296Z,49.92
2017-04-23T05:54:04.808Z,49.82
2017-04-23T05:54:45.349Z,50.21
2017-04-23T05:55:25.842Z,50.4
2017-04-23T05:56:06.313Z,50.99
2017-04-23T05:56:46.809Z,50.87
2017-04-23T05:57:27.319Z,50.78
2017-04-23T05:58:07.798Z,51.06
2017-04-23T05:58:48.292Z,50.97
2017-04-23T05:59:28.813Z,50.68
2017-04-23T06:00:09.341Z,50.68
2017-04-23T06:00:49.810Z,50.49
2017-04-23T06:01:30.281Z,50.3
2017-04-23T06:02:10.794Z,50.01
2017-04-23T06:02:51.253Z,50.11
2017-04-23T06:03:31.784Z,50.11
2017-04-23T06:04:12.257Z,50.4
2017-04-23T06:04:52.782Z,50.68
2017-04-23T06:05:33.253Z,50.23
2017-04-23T06:06:13.748Z,50.04
2017-04-23T06:06:54.264Z,50.23
2017-04-23T06:07:34.783Z,50.04
2017-04-23T06:08:15.520Z,50.13
2017-04-23T06:08:56.022Z,49.85
2017-04-23T06:09:36.480Z,50.01
2017-04-23T06:10:17.014Z,50.04
2017-04-23T06:10:57.500Z,50.42
2017-04-23T06:11:38.077Z,50.13
2017-04-23T06:12:18.476Z,50.13
2017-04-23T06:12:58.977Z,50.49
2017-04-23T06:13:39.481Z,49.95
2017-04-23T06:14:19.980Z,49.82
2017-04-23T06:15:00.427Z,50.01
2017-04-23T06:15:41.039Z,49.85
2017-04-23T06:16:21.511Z,49.56
2017-04-23T06:17:02.098Z,49.18
2017-04-23T06:17:42.567Z,49.56
2017-04-23T06:18:23.072Z,50.04
2017-04-23T06:19:03.604Z,49.85
2017-04-23T06:19:44.110Z,49.56
2017-04-23T06:20:24.585Z,49.56
2017-04-23T06:21:05.099Z,49.56
2017-04-23T06:21:45.556Z,49.56
2017-04-23T06:22:26.048Z,49.47
2017-04-23T06:23:06.556Z,49.37
2017-04-23T06:23:47.116Z,49.18
2017-04-23T06:24:27.778Z,49.47
2017-04-23T06:25:08.345Z,49.76
2017-04-23T06:25:49.053Z,49.56
2017-04-23T06:26:29.611Z,49.66
2017-04-23T06:27:10.070Z,49.56
2017-04-23T06:27:50.618Z,49.66
2017-04-23T06:28:31.089Z,49.85
2017-04-23T06:29:11.802Z,49.56
2017-04-23T06:29:52.075Z,49.47
2017-04-23T06:30:32.520Z,49.47
2017-04-23T06:31:13.118Z,49.47
2017-04-23T06:31:53.931Z,49.18
2017-04-23T06:32:34.612Z,49.28
2017-04-23T06:33:15.016Z,49.66
2017-04-23T06:33:55.724Z,49.85
2017-04-23T06:34:36.713Z,49.37
2017-04-23T06:35:17.268Z,49.56
2017-04-23T06:35:57.735Z,49.47
2017-04-23T06:36:38.226Z,49.49
2017-04-23T06:37:18.782Z,49.59
2017-04-23T06:37:59.173Z,49.3
2017-04-23T06:38:39.720Z,49.47
2017-04-23T06:39:20.378Z,49.56
2017-04-23T06:40:00.750Z,49.3
2017-04-23T06:40:41.230Z,49.3
2017-04-23T06:41:21.727Z,48.73
2017-04-23T06:42:02.323Z,48.73
2017-04-23T06:42:42.742Z,48.35
2017-04-23T06:43:23.307Z,48.44
2017-04-23T06:44:03.697Z,48.44
2017-04-23T06:44:44.227Z,48.25
2017-04-23T06:45:24.639Z,48.25
2017-04-23T06:46:05.140Z,48.08
2017-04-23T06:46:45.658Z,47.89
2017-04-23T06:47:26.154Z,47.99
2017-04-23T06:48:06.596Z,47.89
2017-04-23T06:48:47.122Z,47.13
2017-04-23T06:49:27.626Z,46.94
2017-04-23T06:50:08.128Z,46.58
2017-04-23T06:50:48.594Z,46.27
2017-04-23T06:51:29.098Z,46.58
2017-04-23T06:52:09.561Z,46.18
2017-04-23T06:52:50.157Z,46.39
2017-04-23T06:53:30.569Z,45.92
2017-04-23T06:54:11.078Z,46.01
2017-04-23T06:54:51.590Z,46.11
2017-04-23T06:55:32.110Z,45.92
2017-04-23T06:56:12.568Z,46.39
2017-04-23T06:56:53.070Z,46.58
2017-04-23T06:57:33.585Z,46.68
2017-04-23T06:58:14.017Z,46.18
2017-04-23T06:58:54.527Z,46.01
2017-04-23T06:59:35.017Z,46.3
2017-04-23T07:00:15.529Z,45.63
2017-04-23T07:00:56.093Z,45.92
2017-04-23T07:01:36.608Z,46.01
2017-04-23T07:02:17.069Z,46.01
2017-04-23T07:02:57.560Z,46.01
2017-04-23T07:03:38.049Z,46.11
2017-04-23T07:04:18.512Z,45.82
2017-04-23T07:04:59.067Z,45.43
2017-04-23T07:05:39.548Z,45.27
2017-04-23T07:06:20.014Z,45.27
2017-04-23T07:07:00.548Z,44.98
2017-04-23T07:07:41.021Z,44.79
2017-04-23T07:09:38.698Z,44.89
2017-04-23T07:10:19.215Z,44.41
2017-04-23T07:10:59.724Z,44.41
2017-04-23T07:11:40.265Z,44.41
2017-04-23T07:12:20.775Z,45.06
2017-04-23T07:13:01.309Z,45.63
2017-04-23T07:13:41.834Z,45.92
2017-04-23T07:14:22.373Z,45.65
2017-04-23T07:15:02.871Z,45.08
2017-04-23T07:15:43.418Z,44.98
2017-04-23T07:16:23.916Z,44.87
2017-04-23T07:17:04.417Z,44.96
2017-04-23T07:17:44.940Z,46.11
2017-04-23T07:18:25.477Z,45.89
2017-04-23T07:19:05.988Z,46.47
2017-04-23T07:19:46.557Z,46.2
2017-04-23T07:20:27.099Z,46.01
2017-04-23T07:21:07.615Z,46.11
2017-04-23T07:21:48.142Z,46.2
2017-04-23T07:22:28.676Z,45.92
2017-04-23T07:23:09.156Z,46.01
2017-04-23T07:23:49.677Z,45.82
2017-04-23T07:24:30.212Z,46.11
2017-04-23T07:25:10.730Z,45.92
2017-04-23T07:25:51.249Z,46.01
2017-04-23T07:26:31.763Z,46.01
2017-04-23T07:27:12.286Z,46.2
2017-04-23T07:27:52.864Z,46.03
2017-04-23T07:28:33.412Z,45.65
2017-04-23T07:29:13.934Z,45.56
2017-04-23T07:29:54.561Z,45.65
2017-04-23T07:30:35.043Z,45.08
2017-04-23T07:31:15.512Z,44.89
2017-04-23T07:31:56.037Z,44.41
2017-04-23T07:32:36.564Z,44.02
2017-04-23T07:33:17.083Z,44.22
2017-04-23T07:33:57.603Z,44.31
2017-04-23T07:34:38.133Z,45.08
2017-04-23T07:35:18.618Z,45.46
2017-04-23T07:35:59.134Z,45.15
2017-04-23T07:36:39.659Z,45.15
2017-04-23T07:37:20.174Z,44.89
2017-04-23T07:38:00.713Z,44.79
2017-04-23T07:38:41.218Z,44.96
2017-04-23T07:39:21.690Z,45.53
2017-04-23T07:40:02.190Z,45.99
2017-04-23T07:40:42.712Z,46.37
2017-04-23T07:41:23.237Z,46.66
2017-04-23T07:42:03.772Z,46.94
2017-04-23T07:42:44.276Z,47.11
2017-04-23T07:43:24.800Z,47.87
2017-04-23T07:44:05.316Z,47.99
2017-04-23T07:44:45.830Z,47.23
2017-04-23T07:45:26.353Z,47.42
2017-04-23T07:46:07.116Z,47.13
2017-04-23T07:46:48.119Z,46.75
2017-04-23T07:47:28.825Z,46.94
2017-04-23T07:48:09.316Z,46.39
2017-04-23T07:48:49.818Z,46.2
2017-04-23T07:49:30.342Z,46.2
2017-04-23T07:50:10.850Z,46.01
2017-04-23T07:50:55.620Z,46.11
2017-04-23T07:51:44.408Z,46.01
2017-04-23T07:52:37.505Z,45.53
2017-04-23T07:53:18.057Z,45.53
2017-04-23T07:53:58.534Z,45.43
2017-04-23T07:54:39.072Z,45.15
2017-04-23T07:55:19.537Z,45.15
2017-04-23T07:56:00.047Z,45.43
2017-04-23T07:56:40.599Z,45.43
2017-04-23T07:57:21.138Z,45.06
2017-04-23T07:58:01.647Z,45.15
2017-04-23T07:58:42.160Z,45.34
2017-04-23T07:59:22.670Z,45.15
2017-04-23T08:00:03.188Z,44.96
2017-04-23T08:00:43.716Z,45.15
2017-04-23T08:01:24.231Z,45.27
2017-04-23T08:02:04.756Z,44.96
2017-04-23T08:02:45.271Z,44.98
2017-04-23T08:03:25.783Z,44.51
2017-04-23T08:04:06.310Z,45.46
2017-04-23T08:04:46.815Z,45.08
2017-04-23T08:05:27.370Z,44.98
2017-04-23T08:06:07.850Z,44.79
2017-04-23T08:06:48.363Z,44.79
2017-04-23T08:07:28.819Z,44.79
2017-04-23T08:08:09.363Z,44.79
2017-04-23T08:08:49.892Z,44.7
2017-04-23T08:09:30.364Z,44.41
2017-04-23T08:10:10.912Z,44.41
2017-04-23T08:10:51.409Z,44.67
2017-04-23T08:11:32.079Z,44.77
2017-04-23T08:12:12.706Z,44.77
2017-04-23T08:12:53.123Z,45.15
2017-04-23T08:13:33.630Z,45.92
2017-04-23T08:14:14.119Z,46.3
2017-04-23T08:14:54.598Z,46.58
2017-04-23T08:15:35.079Z,46.58
2017-04-23T08:16:15.812Z,47.03
2017-04-23T08:16:56.435Z,46.75
2017-04-23T08:17:36.894Z,46.66
2017-04-23T08:18:17.394Z,47.23
2017-04-23T08:18:58.270Z,46.56
2017-04-23T08:19:39.015Z,47.32
2017-04-23T08:20:19.614Z,46.87
2017-04-23T08:21:00.057Z,46.58
2017-04-23T08:21:40.588Z,46.11
2017-04-23T08:22:21.294Z,45.92
2017-04-23T08:23:01.691Z,46.11
2017-04-23T08:23:44.214Z,46.11
2017-04-23T08:24:25.240Z,45.63
2017-04-23T08:25:05.727Z,45.63
2017-04-23T08:25:46.465Z,45.06
2017-04-23T08:26:26.879Z,44.96
2017-04-23T08:27:07.977Z,44.38
2017-04-23T08:27:48.496Z,44.2
2017-04-23T08:28:28.855Z,44.38
2017-04-23T08:29:10.286Z,43.91
2017-04-23T08:29:50.392Z,43.82
2017-04-23T08:30:30.903Z,44.12
2017-04-23T08:31:11.353Z,44.29
2017-04-23T08:31:51.907Z,44.22
2017-04-23T08:32:32.362Z,44.31
2017-04-23T08:33:12.838Z,44.2
2017-04-23T08:33:53.325Z,44.12
2017-04-23T08:34:33.837Z,43.93
2017-04-23T08:35:14.592Z,43.84
2017-04-23T08:35:55.131Z,43.93
2017-04-23T08:36:35.622Z,43.93
2017-04-23T08:37:16.107Z,43.84
2017-04-23T08:37:56.774Z,43.55
2017-04-23T08:38:37.308Z,42.97
2017-04-23T08:39:17.944Z,42.11
2017-04-23T08:39:58.622Z,42.11
2017-04-23T08:40:39.193Z,42.21
2017-04-23T08:41:19.882Z,41.35
2017-04-23T08:42:00.352Z,41.45
2017-04-23T08:42:40.876Z,41.74
2017-04-23T08:43:21.522Z,41.06
2017-04-23T08:44:02.039Z,41.35
2017-04-23T08:44:42.559Z,41.45
2017-04-23T08:45:23.087Z,41.45
2017-04-23T08:46:03.564Z,40.59
2017-04-23T08:46:44.087Z,38.87
2017-04-23T08:47:24.712Z,39.25